sensor_id;sensor_type;location;lat;lon;timestamp;P1;durP1;ratioP1;P2;durP2;ratioP2
2480;SDS011;57396;48.742;9.128;2023-06-10T00:01:44;8.60;;;6.90;;
2480;SDS011;57396;48.742;9.128;2023-06-10T00:04:16;8.57;;;7.70;;
2480;SDS011;57396;48.742;9.128;2023-06-10T00:06:44;8.77;;;7.97;;
2480;SDS011;57396;48.742;9.128;2023-06-10T00:09:10;7.90;;;7.00;;
2480;SDS011;57396;48.742;9.128;2023-06-10T00:11:36;8.70;;;7.73;;
2480;SDS011;57396;48.742;9.128;2023-06-10T00:14:02;8.80;;;7.40;;
2480;SDS011;57396;48.742;9.128;2023-06-10T00:16:27;11.30;;;7.90;;
2480;SDS011;57396;48.742;9.128;2023-06-10T00:18:53;8.43;;;7.63;;
2480;SDS011;57396;48.742;9.128;2023-06-10T00:21:21;9.63;;;8.10;;
2480;SDS011;57396;48.742;9.128;2023-06-10T00:23:46;9.07;;;7.40;;
2480;SDS011;57396;48.742;9.128;2023-06-10T00:26:12;8.87;;;7.97;;
2480;SDS011;57396;48.742;9.128;2023-06-10T00:28:37;8.63;;;7.83;;
2480;SDS011;57396;48.742;9.128;2023-06-10T00:31:03;8.00;;;7.30;;
2480;SDS011;57396;48.742;9.128;2023-06-10T00:33:29;8.60;;;7.80;;
2480;SDS011;57396;48.742;9.128;2023-06-10T00:35:55;7.97;;;7.17;;
2480;SDS011;57396;48.742;9.128;2023-06-10T00:38:20;8.43;;;7.10;;
2480;SDS011;57396;48.742;9.128;2023-06-10T00:40:46;8.50;;;7.70;;
2480;SDS011;57396;48.742;9.128;2023-06-10T00:43:11;8.13;;;7.17;;
2480;SDS011;57396;48.742;9.128;2023-06-10T00:45:37;13.90;;;7.60;;
2480;SDS011;57396;48.742;9.128;2023-06-10T00:48:02;9.10;;;8.20;;
2480;SDS011;57396;48.742;9.128;2023-06-10T00:50:28;9.43;;;7.47;;
2480;SDS011;57396;48.742;9.128;2023-06-10T00:52:54;10.53;;;7.57;;
2480;SDS011;57396;48.742;9.128;2023-06-10T00:55:20;9.50;;;7.23;;
2480;SDS011;57396;48.742;9.128;2023-06-10T00:57:46;7.93;;;7.23;;
2480;SDS011;57396;48.742;9.128;2023-06-10T01:00:13;7.90;;;7.10;;
2480;SDS011;57396;48.742;9.128;2023-06-10T01:02:40;8.40;;;7.50;;
2480;SDS011;57396;48.742;9.128;2023-06-10T01:05:06;8.53;;;7.13;;
2480;SDS011;57396;48.742;9.128;2023-06-10T01:07:43;8.60;;;7.00;;
2480;SDS011;57396;48.742;9.128;2023-06-10T01:12:52;8.30;;;7.50;;
2480;SDS011;57396;48.742;9.128;2023-06-10T01:15:19;9.67;;;7.67;;
2480;SDS011;57396;48.742;9.128;2023-06-10T01:17:58;8.47;;;7.77;;
2480;SDS011;57396;48.742;9.128;2023-06-10T01:20:28;8.37;;;7.60;;
2480;SDS011;57396;48.742;9.128;2023-06-10T01:22:54;8.87;;;7.40;;
2480;SDS011;57396;48.742;9.128;2023-06-10T01:25:23;8.63;;;7.73;;
2480;SDS011;57396;48.742;9.128;2023-06-10T01:28:11;8.80;;;7.90;;
2480;SDS011;57396;48.742;9.128;2023-06-10T01:30:45;8.53;;;7.47;;
2480;SDS011;57396;48.742;9.128;2023-06-10T01:33:33;7.93;;;7.20;;
2480;SDS011;57396;48.742;9.128;2023-06-10T01:36:01;10.23;;;7.80;;
2480;SDS011;57396;48.742;9.128;2023-06-10T01:38:27;7.90;;;7.20;;
2480;SDS011;57396;48.742;9.128;2023-06-10T01:40:56;8.57;;;7.77;;
2480;SDS011;57396;48.742;9.128;2023-06-10T01:43:22;7.90;;;7.20;;
2480;SDS011;57396;48.742;9.128;2023-06-10T01:45:48;10.87;;;7.90;;
2480;SDS011;57396;48.742;9.128;2023-06-10T01:48:13;11.13;;;7.40;;
2480;SDS011;57396;48.742;9.128;2023-06-10T01:50:39;8.53;;;7.73;;
2480;SDS011;57396;48.742;9.128;2023-06-10T01:53:04;9.30;;;8.40;;
2480;SDS011;57396;48.742;9.128;2023-06-10T01:55:33;8.73;;;7.83;;
2480;SDS011;57396;48.742;9.128;2023-06-10T01:57:58;8.67;;;7.77;;
2480;SDS011;57396;48.742;9.128;2023-06-10T02:00:23;9.00;;;8.10;;
2480;SDS011;57396;48.742;9.128;2023-06-10T02:02:49;10.17;;;7.77;;
2480;SDS011;57396;48.742;9.128;2023-06-10T02:05:15;10.73;;;8.20;;
2480;SDS011;57396;48.742;9.128;2023-06-10T02:07:40;10.13;;;8.03;;
2480;SDS011;57396;48.742;9.128;2023-06-10T02:10:06;9.00;;;8.10;;
2480;SDS011;57396;48.742;9.128;2023-06-10T02:12:32;8.60;;;7.80;;
2480;SDS011;57396;48.742;9.128;2023-06-10T02:14:57;8.87;;;8.00;;
2480;SDS011;57396;48.742;9.128;2023-06-10T02:17:23;10.73;;;9.63;;
2480;SDS011;57396;48.742;9.128;2023-06-10T02:19:48;8.70;;;7.90;;
2480;SDS011;57396;48.742;9.128;2023-06-10T02:22:21;9.20;;;8.10;;
2480;SDS011;57396;48.742;9.128;2023-06-10T02:24:47;9.10;;;8.30;;
2480;SDS011;57396;48.742;9.128;2023-06-10T02:27:12;8.83;;;8.03;;
2480;SDS011;57396;48.742;9.128;2023-06-10T02:29:38;8.73;;;7.93;;
2480;SDS011;57396;48.742;9.128;2023-06-10T02:32:03;8.67;;;7.87;;
2480;SDS011;57396;48.742;9.128;2023-06-10T02:34:29;9.80;;;7.90;;
2480;SDS011;57396;48.742;9.128;2023-06-10T02:36:55;9.30;;;8.20;;
2480;SDS011;57396;48.742;9.128;2023-06-10T02:39:21;9.57;;;8.60;;
2480;SDS011;57396;48.742;9.128;2023-06-10T02:41:46;9.70;;;8.30;;
2480;SDS011;57396;48.742;9.128;2023-06-10T02:44:12;8.40;;;7.60;;
2480;SDS011;57396;48.742;9.128;2023-06-10T02:46:37;9.13;;;8.33;;
2480;SDS011;57396;48.742;9.128;2023-06-10T02:49:03;8.40;;;7.60;;
2480;SDS011;57396;48.742;9.128;2023-06-10T02:51:28;9.07;;;8.03;;
2480;SDS011;57396;48.742;9.128;2023-06-10T02:53:54;11.40;;;8.20;;
2480;SDS011;57396;48.742;9.128;2023-06-10T02:56:19;9.07;;;8.17;;
2480;SDS011;57396;48.742;9.128;2023-06-10T02:58:45;9.97;;;7.60;;
2480;SDS011;57396;48.742;9.128;2023-06-10T03:01:11;8.17;;;7.33;;
2480;SDS011;57396;48.742;9.128;2023-06-10T03:03:37;9.27;;;8.00;;
2480;SDS011;57396;48.742;9.128;2023-06-10T03:06:06;8.30;;;7.60;;
2480;SDS011;57396;48.742;9.128;2023-06-10T03:08:31;8.40;;;7.60;;
2480;SDS011;57396;48.742;9.128;2023-06-10T03:10:56;12.47;;;8.00;;
2480;SDS011;57396;48.742;9.128;2023-06-10T03:13:23;9.63;;;8.33;;
2480;SDS011;57396;48.742;9.128;2023-06-10T03:15:48;8.30;;;7.50;;
2480;SDS011;57396;48.742;9.128;2023-06-10T03:18:14;11.60;;;7.80;;
2480;SDS011;57396;48.742;9.128;2023-06-10T03:20:40;8.67;;;7.97;;
2480;SDS011;57396;48.742;9.128;2023-06-10T03:23:05;8.47;;;7.67;;
2480;SDS011;57396;48.742;9.128;2023-06-10T03:25:34;8.67;;;7.83;;
2480;SDS011;57396;48.742;9.128;2023-06-10T03:28:00;10.63;;;9.27;;
2480;SDS011;57396;48.742;9.128;2023-06-10T03:30:26;12.43;;;9.50;;
2480;SDS011;57396;48.742;9.128;2023-06-10T03:32:52;10.63;;;8.30;;
2480;SDS011;57396;48.742;9.128;2023-06-10T03:35:18;12.83;;;8.50;;
2480;SDS011;57396;48.742;9.128;2023-06-10T03:37:43;9.90;;;8.10;;
2480;SDS011;57396;48.742;9.128;2023-06-10T03:40:09;9.57;;;7.93;;
2480;SDS011;57396;48.742;9.128;2023-06-10T03:42:35;9.00;;;8.20;;
2480;SDS011;57396;48.742;9.128;2023-06-10T03:45:01;8.57;;;7.67;;
2480;SDS011;57396;48.742;9.128;2023-06-10T03:47:32;9.90;;;8.30;;
2480;SDS011;57396;48.742;9.128;2023-06-10T03:49:59;9.73;;;7.80;;
2480;SDS011;57396;48.742;9.128;2023-06-10T03:52:25;11.23;;;8.50;;
2480;SDS011;57396;48.742;9.128;2023-06-10T03:54:50;8.83;;;7.93;;
2480;SDS011;57396;48.742;9.128;2023-06-10T03:57:16;10.00;;;8.60;;
2480;SDS011;57396;48.742;9.128;2023-06-10T03:59:41;8.67;;;7.77;;
2480;SDS011;57396;48.742;9.128;2023-06-10T04:02:07;8.50;;;7.70;;
2480;SDS011;57396;48.742;9.128;2023-06-10T04:04:33;8.93;;;8.03;;
2480;SDS011;57396;48.742;9.128;2023-06-10T04:06:59;8.10;;;7.40;;
2480;SDS011;57396;48.742;9.128;2023-06-10T04:09:25;10.73;;;8.30;;
2480;SDS011;57396;48.742;9.128;2023-06-10T04:11:50;8.80;;;7.90;;
2480;SDS011;57396;48.742;9.128;2023-06-10T04:14:16;9.80;;;8.73;;
2480;SDS011;57396;48.742;9.128;2023-06-10T04:16:41;14.70;;;7.50;;
2480;SDS011;57396;48.742;9.128;2023-06-10T04:19:08;8.90;;;8.03;;
2480;SDS011;57396;48.742;9.128;2023-06-10T04:21:33;9.03;;;7.33;;
2480;SDS011;57396;48.742;9.128;2023-06-10T04:23:58;9.27;;;8.37;;
2480;SDS011;57396;48.742;9.128;2023-06-10T04:26:24;10.03;;;8.27;;
2480;SDS011;57396;48.742;9.128;2023-06-10T04:28:50;9.73;;;8.73;;
2480;SDS011;57396;48.742;9.128;2023-06-10T04:31:16;9.03;;;8.23;;
2480;SDS011;57396;48.742;9.128;2023-06-10T04:33:41;10.00;;;9.00;;
2480;SDS011;57396;48.742;9.128;2023-06-10T04:36:07;10.83;;;8.30;;
2480;SDS011;57396;48.742;9.128;2023-06-10T04:38:33;8.40;;;7.60;;
2480;SDS011;57396;48.742;9.128;2023-06-10T04:40:58;8.87;;;8.17;;
2480;SDS011;57396;48.742;9.128;2023-06-10T04:43:24;9.27;;;8.47;;
2480;SDS011;57396;48.742;9.128;2023-06-10T04:45:49;8.87;;;8.07;;
2480;SDS011;57396;48.742;9.128;2023-06-10T04:48:15;9.80;;;8.77;;
2480;SDS011;57396;48.742;9.128;2023-06-10T04:50:40;9.83;;;8.73;;
2480;SDS011;57396;48.742;9.128;2023-06-10T04:53:06;9.50;;;8.60;;
2480;SDS011;57396;48.742;9.128;2023-06-10T04:55:31;10.73;;;8.63;;
2480;SDS011;57396;48.742;9.128;2023-06-10T04:57:58;10.30;;;8.63;;
2480;SDS011;57396;48.742;9.128;2023-06-10T05:00:23;9.27;;;8.37;;
2480;SDS011;57396;48.742;9.128;2023-06-10T05:02:49;8.40;;;7.70;;
2480;SDS011;57396;48.742;9.128;2023-06-10T05:05:15;9.20;;;8.23;;
2480;SDS011;57396;48.742;9.128;2023-06-10T05:07:41;9.53;;;8.63;;
2480;SDS011;57396;48.742;9.128;2023-06-10T05:10:07;8.07;;;7.27;;
2480;SDS011;57396;48.742;9.128;2023-06-10T05:12:33;8.70;;;7.90;;
2480;SDS011;57396;48.742;9.128;2023-06-10T05:14:58;8.10;;;7.20;;
2480;SDS011;57396;48.742;9.128;2023-06-10T05:17:24;7.57;;;6.97;;
2480;SDS011;57396;48.742;9.128;2023-06-10T05:19:50;8.00;;;7.30;;
2480;SDS011;57396;48.742;9.128;2023-06-10T05:22:16;9.03;;;7.70;;
2480;SDS011;57396;48.742;9.128;2023-06-10T05:24:43;7.10;;;6.40;;
2480;SDS011;57396;48.742;9.128;2023-06-10T05:27:09;8.03;;;7.30;;
2480;SDS011;57396;48.742;9.128;2023-06-10T05:29:35;6.90;;;6.30;;
2480;SDS011;57396;48.742;9.128;2023-06-10T05:32:00;7.40;;;6.70;;
2480;SDS011;57396;48.742;9.128;2023-06-10T05:34:29;6.50;;;5.97;;
2480;SDS011;57396;48.742;9.128;2023-06-10T05:36:54;7.67;;;6.20;;
2480;SDS011;57396;48.742;9.128;2023-06-10T05:39:20;7.20;;;5.93;;
2480;SDS011;57396;48.742;9.128;2023-06-10T05:41:45;9.83;;;6.63;;
2480;SDS011;57396;48.742;9.128;2023-06-10T05:44:11;9.83;;;6.40;;
2480;SDS011;57396;48.742;9.128;2023-06-10T05:46:36;7.00;;;6.30;;
2480;SDS011;57396;48.742;9.128;2023-06-10T05:49:02;12.73;;;6.53;;
2480;SDS011;57396;48.742;9.128;2023-06-10T05:51:28;6.70;;;6.20;;
2480;SDS011;57396;48.742;9.128;2023-06-10T05:53:53;6.90;;;6.30;;
2480;SDS011;57396;48.742;9.128;2023-06-10T05:56:19;6.73;;;6.03;;
2480;SDS011;57396;48.742;9.128;2023-06-10T05:58:46;6.07;;;5.43;;
2480;SDS011;57396;48.742;9.128;2023-06-10T06:01:12;6.87;;;6.17;;
2480;SDS011;57396;48.742;9.128;2023-06-10T06:03:37;6.67;;;5.90;;
2480;SDS011;57396;48.742;9.128;2023-06-10T06:06:03;6.43;;;5.87;;
2480;SDS011;57396;48.742;9.128;2023-06-10T06:08:28;6.23;;;5.77;;
2480;SDS011;57396;48.742;9.128;2023-06-10T06:10:54;5.80;;;5.30;;
2480;SDS011;57396;48.742;9.128;2023-06-10T06:13:20;7.53;;;5.30;;
2480;SDS011;57396;48.742;9.128;2023-06-10T06:15:45;8.40;;;5.60;;
2480;SDS011;57396;48.742;9.128;2023-06-10T06:18:10;15.47;;;5.87;;
2480;SDS011;57396;48.742;9.128;2023-06-10T06:20:36;8.13;;;5.93;;
2480;SDS011;57396;48.742;9.128;2023-06-10T06:23:01;8.87;;;5.30;;
2480;SDS011;57396;48.742;9.128;2023-06-10T06:25:27;18.27;;;6.20;;
2480;SDS011;57396;48.742;9.128;2023-06-10T06:27:52;8.73;;;5.83;;
2480;SDS011;57396;48.742;9.128;2023-06-10T06:30:18;8.80;;;5.60;;
2480;SDS011;57396;48.742;9.128;2023-06-10T06:32:43;6.43;;;5.47;;
2480;SDS011;57396;48.742;9.128;2023-06-10T06:35:08;6.90;;;6.27;;
2480;SDS011;57396;48.742;9.128;2023-06-10T06:37:34;11.73;;;5.57;;
2480;SDS011;57396;48.742;9.128;2023-06-10T06:40:00;5.87;;;5.30;;
2480;SDS011;57396;48.742;9.128;2023-06-10T06:42:25;5.60;;;5.17;;
2480;SDS011;57396;48.742;9.128;2023-06-10T06:44:51;6.40;;;5.80;;
2480;SDS011;57396;48.742;9.128;2023-06-10T06:47:16;6.30;;;5.70;;
2480;SDS011;57396;48.742;9.128;2023-06-10T06:49:47;5.83;;;5.23;;
2480;SDS011;57396;48.742;9.128;2023-06-10T06:52:13;6.30;;;5.27;;
2480;SDS011;57396;48.742;9.128;2023-06-10T06:54:39;8.13;;;5.30;;
2480;SDS011;57396;48.742;9.128;2023-06-10T06:57:05;5.40;;;4.90;;
2480;SDS011;57396;48.742;9.128;2023-06-10T06:59:31;9.40;;;5.60;;
2480;SDS011;57396;48.742;9.128;2023-06-10T07:01:56;7.90;;;4.87;;
2480;SDS011;57396;48.742;9.128;2023-06-10T07:04:21;5.20;;;4.80;;
2480;SDS011;57396;48.742;9.128;2023-06-10T07:06:47;5.20;;;4.80;;
2480;SDS011;57396;48.742;9.128;2023-06-10T07:09:13;8.80;;;5.07;;
2480;SDS011;57396;48.742;9.128;2023-06-10T07:11:39;5.63;;;5.03;;
2480;SDS011;57396;48.742;9.128;2023-06-10T07:14:04;6.00;;;5.50;;
2480;SDS011;57396;48.742;9.128;2023-06-10T07:16:29;5.57;;;5.10;;
2480;SDS011;57396;48.742;9.128;2023-06-10T07:18:55;5.87;;;5.37;;
2480;SDS011;57396;48.742;9.128;2023-06-10T07:21:20;5.97;;;5.13;;
2480;SDS011;57396;48.742;9.128;2023-06-10T07:23:47;4.77;;;4.43;;
2480;SDS011;57396;48.742;9.128;2023-06-10T07:26:13;5.67;;;5.13;;
2480;SDS011;57396;48.742;9.128;2023-06-10T07:28:41;4.97;;;4.57;;
2480;SDS011;57396;48.742;9.128;2023-06-10T07:31:07;5.60;;;5.10;;
2480;SDS011;57396;48.742;9.128;2023-06-10T07:33:33;4.77;;;4.37;;
2480;SDS011;57396;48.742;9.128;2023-06-10T07:35:59;9.53;;;4.30;;
2480;SDS011;57396;48.742;9.128;2023-06-10T07:38:24;6.47;;;4.63;;
2480;SDS011;57396;48.742;9.128;2023-06-10T07:40:50;4.93;;;4.53;;
2480;SDS011;57396;48.742;9.128;2023-06-10T07:43:16;4.97;;;4.57;;
2480;SDS011;57396;48.742;9.128;2023-06-10T07:45:42;5.43;;;4.73;;
2480;SDS011;57396;48.742;9.128;2023-06-10T07:48:07;4.83;;;4.43;;
2480;SDS011;57396;48.742;9.128;2023-06-10T07:50:33;4.30;;;3.90;;
2480;SDS011;57396;48.742;9.128;2023-06-10T07:52:59;5.60;;;5.10;;
2480;SDS011;57396;48.742;9.128;2023-06-10T07:55:24;5.67;;;5.17;;
2480;SDS011;57396;48.742;9.128;2023-06-10T07:57:51;5.37;;;4.87;;
2480;SDS011;57396;48.742;9.128;2023-06-10T08:00:17;5.40;;;4.90;;
2480;SDS011;57396;48.742;9.128;2023-06-10T08:02:43;5.40;;;5.00;;
2480;SDS011;57396;48.742;9.128;2023-06-10T08:05:08;5.43;;;4.93;;
2480;SDS011;57396;48.742;9.128;2023-06-10T08:07:34;5.50;;;5.03;;
2480;SDS011;57396;48.742;9.128;2023-06-10T08:09:59;6.77;;;5.27;;
2480;SDS011;57396;48.742;9.128;2023-06-10T08:12:25;5.23;;;4.83;;
2480;SDS011;57396;48.742;9.128;2023-06-10T08:14:51;5.33;;;4.87;;
2480;SDS011;57396;48.742;9.128;2023-06-10T08:17:16;5.70;;;5.10;;
2480;SDS011;57396;48.742;9.128;2023-06-10T08:19:41;7.40;;;5.13;;
2480;SDS011;57396;48.742;9.128;2023-06-10T08:22:07;5.97;;;5.37;;
2480;SDS011;57396;48.742;9.128;2023-06-10T08:24:32;5.60;;;5.20;;
2480;SDS011;57396;48.742;9.128;2023-06-10T08:26:58;6.13;;;5.60;;
2480;SDS011;57396;48.742;9.128;2023-06-10T08:29:23;5.40;;;4.70;;
2480;SDS011;57396;48.742;9.128;2023-06-10T08:31:49;5.87;;;5.30;;
2480;SDS011;57396;48.742;9.128;2023-06-10T08:34:14;5.40;;;5.00;;
2480;SDS011;57396;48.742;9.128;2023-06-10T08:36:40;5.93;;;5.30;;
2480;SDS011;57396;48.742;9.128;2023-06-10T08:39:06;8.73;;;5.20;;
2480;SDS011;57396;48.742;9.128;2023-06-10T08:41:35;6.47;;;5.93;;
2480;SDS011;57396;48.742;9.128;2023-06-10T08:44:21;5.80;;;5.27;;
2480;SDS011;57396;48.742;9.128;2023-06-10T08:46:47;6.57;;;5.90;;
2480;SDS011;57396;48.742;9.128;2023-06-10T08:49:18;6.63;;;5.33;;
2480;SDS011;57396;48.742;9.128;2023-06-10T08:51:50;5.90;;;5.40;;
2480;SDS011;57396;48.742;9.128;2023-06-10T08:54:21;5.30;;;4.80;;
2480;SDS011;57396;48.742;9.128;2023-06-10T08:56:48;5.70;;;5.10;;
2480;SDS011;57396;48.742;9.128;2023-06-10T08:59:16;5.33;;;4.87;;
2480;SDS011;57396;48.742;9.128;2023-06-10T09:01:42;5.63;;;5.10;;
2480;SDS011;57396;48.742;9.128;2023-06-10T09:04:08;6.27;;;4.83;;
2480;SDS011;57396;48.742;9.128;2023-06-10T09:06:34;5.20;;;4.70;;
2480;SDS011;57396;48.742;9.128;2023-06-10T09:09:01;4.83;;;4.40;;
2480;SDS011;57396;48.742;9.128;2023-06-10T09:11:27;5.13;;;4.73;;
2480;SDS011;57396;48.742;9.128;2023-06-10T09:13:53;5.30;;;4.90;;
2480;SDS011;57396;48.742;9.128;2023-06-10T09:16:19;4.80;;;4.50;;
2480;SDS011;57396;48.742;9.128;2023-06-10T09:18:44;5.47;;;4.67;;
2480;SDS011;57396;48.742;9.128;2023-06-10T09:21:10;6.50;;;4.70;;
2480;SDS011;57396;48.742;9.128;2023-06-10T09:23:36;4.90;;;4.40;;
2480;SDS011;57396;48.742;9.128;2023-06-10T09:26:02;4.43;;;4.03;;
2480;SDS011;57396;48.742;9.128;2023-06-10T09:28:30;4.10;;;3.77;;
2480;SDS011;57396;48.742;9.128;2023-06-10T09:31:04;5.10;;;4.07;;
2480;SDS011;57396;48.742;9.128;2023-06-10T09:33:31;4.70;;;4.30;;
2480;SDS011;57396;48.742;9.128;2023-06-10T09:35:56;4.60;;;3.47;;
2480;SDS011;57396;48.742;9.128;2023-06-10T09:38:29;5.60;;;4.33;;
2480;SDS011;57396;48.742;9.128;2023-06-10T09:40:55;4.47;;;4.07;;
2480;SDS011;57396;48.742;9.128;2023-06-10T09:43:20;4.23;;;3.93;;
2480;SDS011;57396;48.742;9.128;2023-06-10T09:45:52;5.10;;;4.23;;
2480;SDS011;57396;48.742;9.128;2023-06-10T09:48:21;4.40;;;4.10;;
2480;SDS011;57396;48.742;9.128;2023-06-10T09:50:48;4.43;;;4.10;;
2480;SDS011;57396;48.742;9.128;2023-06-10T09:53:13;4.90;;;3.67;;
2480;SDS011;57396;48.742;9.128;2023-06-10T09:55:40;3.90;;;3.60;;
2480;SDS011;57396;48.742;9.128;2023-06-10T09:58:06;5.40;;;3.90;;
2480;SDS011;57396;48.742;9.128;2023-06-10T10:00:32;4.57;;;4.17;;
2480;SDS011;57396;48.742;9.128;2023-06-10T10:02:59;4.07;;;3.67;;
2480;SDS011;57396;48.742;9.128;2023-06-10T10:05:24;4.03;;;3.50;;
2480;SDS011;57396;48.742;9.128;2023-06-10T10:07:50;4.00;;;3.70;;
2480;SDS011;57396;48.742;9.128;2023-06-10T10:10:16;4.53;;;4.10;;
2480;SDS011;57396;48.742;9.128;2023-06-10T10:12:43;5.10;;;3.90;;
2480;SDS011;57396;48.742;9.128;2023-06-10T10:15:11;3.90;;;3.60;;
2480;SDS011;57396;48.742;9.128;2023-06-10T10:17:40;3.90;;;3.60;;
2480;SDS011;57396;48.742;9.128;2023-06-10T10:20:16;5.50;;;3.77;;
2480;SDS011;57396;48.742;9.128;2023-06-10T10:22:43;4.23;;;3.93;;
2480;SDS011;57396;48.742;9.128;2023-06-10T10:25:12;5.87;;;3.80;;
2480;SDS011;57396;48.742;9.128;2023-06-10T10:27:43;5.10;;;3.90;;
2480;SDS011;57396;48.742;9.128;2023-06-10T10:30:28;4.37;;;3.97;;
2480;SDS011;57396;48.742;9.128;2023-06-10T10:35:30;4.77;;;4.03;;
2480;SDS011;57396;48.742;9.128;2023-06-10T10:37:56;4.63;;;4.20;;
2480;SDS011;57396;48.742;9.128;2023-06-10T10:40:22;5.33;;;4.43;;
2480;SDS011;57396;48.742;9.128;2023-06-10T10:42:51;4.93;;;4.53;;
2480;SDS011;57396;48.742;9.128;2023-06-10T10:45:17;3.70;;;3.40;;
2480;SDS011;57396;48.742;9.128;2023-06-10T10:47:43;4.40;;;4.00;;
2480;SDS011;57396;48.742;9.128;2023-06-10T10:50:14;4.50;;;4.10;;
2480;SDS011;57396;48.742;9.128;2023-06-10T10:52:46;4.43;;;4.13;;
2480;SDS011;57396;48.742;9.128;2023-06-10T10:55:17;4.60;;;4.20;;
2480;SDS011;57396;48.742;9.128;2023-06-10T10:57:43;4.87;;;4.30;;
2480;SDS011;57396;48.742;9.128;2023-06-10T11:00:08;4.80;;;4.40;;
2480;SDS011;57396;48.742;9.128;2023-06-10T11:05:03;4.80;;;4.40;;
2480;SDS011;57396;48.742;9.128;2023-06-10T11:07:30;4.90;;;4.50;;
2480;SDS011;57396;48.742;9.128;2023-06-10T11:09:57;6.23;;;4.20;;
2480;SDS011;57396;48.742;9.128;2023-06-10T11:12:24;6.50;;;3.77;;
2480;SDS011;57396;48.742;9.128;2023-06-10T11:14:53;5.93;;;4.20;;
2480;SDS011;57396;48.742;9.128;2023-06-10T11:17:20;4.00;;;3.70;;
2480;SDS011;57396;48.742;9.128;2023-06-10T11:19:46;4.40;;;4.00;;
2480;SDS011;57396;48.742;9.128;2023-06-10T11:22:16;28.77;;;8.43;;
2480;SDS011;57396;48.742;9.128;2023-06-10T11:24:46;13.17;;;6.00;;
2480;SDS011;57396;48.742;9.128;2023-06-10T11:27:19;6.80;;;4.50;;
2480;SDS011;57396;48.742;9.128;2023-06-10T11:32:28;22.63;;;6.60;;
2480;SDS011;57396;48.742;9.128;2023-06-10T11:34:55;6.63;;;4.47;;
2480;SDS011;57396;48.742;9.128;2023-06-10T11:37:21;22.97;;;8.47;;
2480;SDS011;57396;48.742;9.128;2023-06-10T11:39:47;19.53;;;6.63;;
2480;SDS011;57396;48.742;9.128;2023-06-10T11:42:16;17.17;;;6.23;;
2480;SDS011;57396;48.742;9.128;2023-06-10T11:44:47;7.10;;;5.00;;
2480;SDS011;57396;48.742;9.128;2023-06-10T11:47:16;5.03;;;4.63;;
2480;SDS011;57396;48.742;9.128;2023-06-10T11:49:43;4.40;;;4.00;;
2480;SDS011;57396;48.742;9.128;2023-06-10T11:52:09;4.60;;;4.20;;
2480;SDS011;57396;48.742;9.128;2023-06-10T11:54:34;4.63;;;4.23;;
2480;SDS011;57396;48.742;9.128;2023-06-10T11:57:00;5.10;;;4.40;;
2480;SDS011;57396;48.742;9.128;2023-06-10T11:59:28;4.27;;;3.93;;
2480;SDS011;57396;48.742;9.128;2023-06-10T12:01:54;5.23;;;4.50;;
2480;SDS011;57396;48.742;9.128;2023-06-10T12:04:20;4.60;;;4.30;;
2480;SDS011;57396;48.742;9.128;2023-06-10T12:11:52;4.53;;;4.13;;
2480;SDS011;57396;48.742;9.128;2023-06-10T12:20:02;4.40;;;3.50;;
2480;SDS011;57396;48.742;9.128;2023-06-10T12:22:39;4.20;;;3.90;;
2480;SDS011;57396;48.742;9.128;2023-06-10T12:25:05;4.00;;;3.70;;
2480;SDS011;57396;48.742;9.128;2023-06-10T12:27:32;4.20;;;3.90;;
2480;SDS011;57396;48.742;9.128;2023-06-10T12:29:59;5.23;;;4.30;;
2480;SDS011;57396;48.742;9.128;2023-06-10T12:35:07;4.30;;;4.00;;
2480;SDS011;57396;48.742;9.128;2023-06-10T12:37:33;4.80;;;4.27;;
2480;SDS011;57396;48.742;9.128;2023-06-10T12:40:00;6.20;;;4.00;;
2480;SDS011;57396;48.742;9.128;2023-06-10T12:42:32;15.83;;;6.30;;
2480;SDS011;57396;48.742;9.128;2023-06-10T12:45:00;5.40;;;4.60;;
2480;SDS011;57396;48.742;9.128;2023-06-10T12:47:32;7.70;;;4.00;;
2480;SDS011;57396;48.742;9.128;2023-06-10T12:50:00;4.50;;;4.07;;
2480;SDS011;57396;48.742;9.128;2023-06-10T12:52:26;4.27;;;3.87;;
2480;SDS011;57396;48.742;9.128;2023-06-10T12:54:52;4.17;;;3.77;;
2480;SDS011;57396;48.742;9.128;2023-06-10T12:57:19;4.57;;;4.17;;
2480;SDS011;57396;48.742;9.128;2023-06-10T12:59:44;4.57;;;4.17;;
2480;SDS011;57396;48.742;9.128;2023-06-10T13:02:15;4.17;;;3.87;;
2480;SDS011;57396;48.742;9.128;2023-06-10T13:04:43;5.20;;;4.30;;
2480;SDS011;57396;48.742;9.128;2023-06-10T13:07:09;4.73;;;4.43;;
2480;SDS011;57396;48.742;9.128;2023-06-10T13:09:35;25.90;;;8.17;;
2480;SDS011;57396;48.742;9.128;2023-06-10T13:12:01;4.20;;;3.80;;
2480;SDS011;57396;48.742;9.128;2023-06-10T13:14:26;5.50;;;3.67;;
2480;SDS011;57396;48.742;9.128;2023-06-10T13:16:52;4.77;;;4.00;;
2480;SDS011;57396;48.742;9.128;2023-06-10T13:19:19;4.70;;;4.30;;
2480;SDS011;57396;48.742;9.128;2023-06-10T13:21:46;4.57;;;4.17;;
2480;SDS011;57396;48.742;9.128;2023-06-10T13:24:12;5.93;;;4.47;;
2480;SDS011;57396;48.742;9.128;2023-06-10T13:26:38;4.27;;;3.97;;
2480;SDS011;57396;48.742;9.128;2023-06-10T13:29:03;4.37;;;3.97;;
2480;SDS011;57396;48.742;9.128;2023-06-10T13:31:29;3.83;;;3.47;;
2480;SDS011;57396;48.742;9.128;2023-06-10T13:33:54;3.77;;;3.47;;
2480;SDS011;57396;48.742;9.128;2023-06-10T13:36:20;3.73;;;3.43;;
2480;SDS011;57396;48.742;9.128;2023-06-10T13:38:45;4.20;;;3.80;;
2480;SDS011;57396;48.742;9.128;2023-06-10T13:41:12;4.07;;;3.77;;
2480;SDS011;57396;48.742;9.128;2023-06-10T13:43:38;4.23;;;3.93;;
2480;SDS011;57396;48.742;9.128;2023-06-10T13:46:04;4.33;;;4.03;;
2480;SDS011;57396;48.742;9.128;2023-06-10T13:48:30;3.70;;;3.40;;
2480;SDS011;57396;48.742;9.128;2023-06-10T13:50:56;4.70;;;3.60;;
2480;SDS011;57396;48.742;9.128;2023-06-10T13:53:22;6.57;;;3.73;;
2480;SDS011;57396;48.742;9.128;2023-06-10T13:55:47;6.90;;;3.80;;
2480;SDS011;57396;48.742;9.128;2023-06-10T13:58:13;6.20;;;4.47;;
2480;SDS011;57396;48.742;9.128;2023-06-10T14:00:38;3.83;;;3.47;;
2480;SDS011;57396;48.742;9.128;2023-06-10T14:03:04;3.83;;;3.53;;
2480;SDS011;57396;48.742;9.128;2023-06-10T14:05:29;6.27;;;3.77;;
2480;SDS011;57396;48.742;9.128;2023-06-10T14:07:55;3.23;;;2.93;;
2480;SDS011;57396;48.742;9.128;2023-06-10T14:10:21;3.60;;;3.30;;
2480;SDS011;57396;48.742;9.128;2023-06-10T14:12:46;4.00;;;3.70;;
2480;SDS011;57396;48.742;9.128;2023-06-10T14:15:12;5.00;;;3.40;;
2480;SDS011;57396;48.742;9.128;2023-06-10T14:17:37;6.10;;;5.40;;
2480;SDS011;57396;48.742;9.128;2023-06-10T14:20:02;5.73;;;5.23;;
2480;SDS011;57396;48.742;9.128;2023-06-10T14:22:29;4.20;;;3.80;;
2480;SDS011;57396;48.742;9.128;2023-06-10T14:24:54;3.97;;;3.67;;
2480;SDS011;57396;48.742;9.128;2023-06-10T14:27:20;4.10;;;3.80;;
2480;SDS011;57396;48.742;9.128;2023-06-10T14:29:45;4.10;;;3.80;;
2480;SDS011;57396;48.742;9.128;2023-06-10T14:32:11;4.17;;;3.77;;
2480;SDS011;57396;48.742;9.128;2023-06-10T14:34:36;4.03;;;3.67;;
2480;SDS011;57396;48.742;9.128;2023-06-10T14:37:04;4.33;;;4.03;;
2480;SDS011;57396;48.742;9.128;2023-06-10T14:39:32;6.93;;;3.50;;
2480;SDS011;57396;48.742;9.128;2023-06-10T14:41:57;3.80;;;3.50;;
2480;SDS011;57396;48.742;9.128;2023-06-10T14:44:23;3.83;;;3.53;;
2480;SDS011;57396;48.742;9.128;2023-06-10T14:46:48;3.47;;;3.27;;
2480;SDS011;57396;48.742;9.128;2023-06-10T14:49:13;3.03;;;2.83;;
2480;SDS011;57396;48.742;9.128;2023-06-10T14:51:39;3.53;;;3.23;;
2480;SDS011;57396;48.742;9.128;2023-06-10T14:54:05;3.60;;;3.30;;
2480;SDS011;57396;48.742;9.128;2023-06-10T14:56:30;3.73;;;3.30;;
2480;SDS011;57396;48.742;9.128;2023-06-10T14:58:55;5.80;;;3.20;;
2480;SDS011;57396;48.742;9.128;2023-06-10T15:01:21;4.33;;;3.83;;
2480;SDS011;57396;48.742;9.128;2023-06-10T15:03:46;3.60;;;3.30;;
2480;SDS011;57396;48.742;9.128;2023-06-10T15:06:12;3.60;;;3.33;;
2480;SDS011;57396;48.742;9.128;2023-06-10T15:08:37;3.87;;;3.63;;
2480;SDS011;57396;48.742;9.128;2023-06-10T15:11:03;3.73;;;3.53;;
2480;SDS011;57396;48.742;9.128;2023-06-10T15:13:28;4.50;;;4.10;;
2480;SDS011;57396;48.742;9.128;2023-06-10T15:15:54;3.40;;;3.20;;
2480;SDS011;57396;48.742;9.128;2023-06-10T15:18:19;4.10;;;3.80;;
2480;SDS011;57396;48.742;9.128;2023-06-10T15:20:45;10.53;;;4.10;;